Hughenden Airport

Airport
ICAO code: 
YHUG
IATA Code: 
HGD
Summary
ICAO Region: 
APAC
Territory: 
Location: 
Hughenden, Queensland
Serving: 
Hughenden
Elevation: 
1043 ft
Coordinates: 
Aerial View: 
20° 48' 54" S, 144° 13' 30" E
Metar
Observation
YHUG 282300Z AUTO 02011KT 9999 // SCT031 SCT073 29/20 Q1012
Station
Hughenden Airport
Date/Time
2021-11-28 23:00:00
Wind direction
20°
Wind speed
11 kts
Lowest cloud amount
scattered clouds
Temperature
29°C
Dew point
20°C
Humidity
58%
QNH
1012 hPa
Weather condition
n/a

Runways

Designator Length Width Surface Rops
6/24 930 18 GVL No/No
12/30 1644 30 ASP No/No
Airport map: 
Aerial View: 

SKYbrary Partners:

Safety knowledge contributed by: